sensor_id;sensor_type;location;lat;lon;timestamp;P1;durP1;ratioP1;P2;durP2;ratioP2
52126;SDS011;38120;53.176;6.614;2024-03-02T00:02:24;7.13;;;4.40;;
52126;SDS011;38120;53.176;6.614;2024-03-02T00:04:50;6.90;;;4.13;;
52126;SDS011;38120;53.176;6.614;2024-03-02T00:07:16;7.82;;;3.42;;
52126;SDS011;38120;53.176;6.614;2024-03-02T00:09:42;6.28;;;3.70;;
52126;SDS011;38120;53.176;6.614;2024-03-02T00:12:08;5.93;;;4.07;;
52126;SDS011;38120;53.176;6.614;2024-03-02T00:14:36;5.82;;;3.28;;
52126;SDS011;38120;53.176;6.614;2024-03-02T00:17:02;4.80;;;3.47;;
52126;SDS011;38120;53.176;6.614;2024-03-02T00:19:28;6.47;;;4.23;;
52126;SDS011;38120;53.176;6.614;2024-03-02T00:21:54;6.80;;;4.07;;
52126;SDS011;38120;53.176;6.614;2024-03-02T00:24:21;6.83;;;3.80;;
52126;SDS011;38120;53.176;6.614;2024-03-02T00:26:50;6.82;;;3.75;;
52126;SDS011;38120;53.176;6.614;2024-03-02T00:29:16;6.40;;;4.00;;
52126;SDS011;38120;53.176;6.614;2024-03-02T00:31:45;7.60;;;4.15;;
52126;SDS011;38120;53.176;6.614;2024-03-02T00:34:11;5.90;;;3.70;;
52126;SDS011;38120;53.176;6.614;2024-03-02T00:36:38;6.40;;;4.03;;
52126;SDS011;38120;53.176;6.614;2024-03-02T00:39:05;6.10;;;4.53;;
52126;SDS011;38120;53.176;6.614;2024-03-02T00:41:32;6.78;;;4.25;;
52126;SDS011;38120;53.176;6.614;2024-03-02T00:43:59;5.18;;;3.75;;
52126;SDS011;38120;53.176;6.614;2024-03-02T00:46:40;6.45;;;3.42;;
52126;SDS011;38120;53.176;6.614;2024-03-02T00:51:52;6.45;;;4.22;;
52126;SDS011;38120;53.176;6.614;2024-03-02T00:54:22;7.05;;;4.40;;
52126;SDS011;38120;53.176;6.614;2024-03-02T00:56:51;7.22;;;4.18;;
52126;SDS011;38120;53.176;6.614;2024-03-02T00:59:17;5.95;;;3.90;;
52126;SDS011;38120;53.176;6.614;2024-03-02T01:01:43;6.57;;;4.10;;
52126;SDS011;38120;53.176;6.614;2024-03-02T01:04:09;6.57;;;4.07;;
52126;SDS011;38120;53.176;6.614;2024-03-02T01:06:35;7.43;;;4.10;;
52126;SDS011;38120;53.176;6.614;2024-03-02T01:09:01;6.93;;;4.05;;
52126;SDS011;38120;53.176;6.614;2024-03-02T01:13:53;5.68;;;3.83;;
52126;SDS011;38120;53.176;6.614;2024-03-02T01:16:19;7.57;;;4.40;;
52126;SDS011;38120;53.176;6.614;2024-03-02T01:18:44;5.73;;;3.83;;
52126;SDS011;38120;53.176;6.614;2024-03-02T01:21:10;6.83;;;4.33;;
52126;SDS011;38120;53.176;6.614;2024-03-02T01:23:36;5.60;;;3.93;;
52126;SDS011;38120;53.176;6.614;2024-03-02T01:26:02;8.30;;;4.65;;
52126;SDS011;38120;53.176;6.614;2024-03-02T01:28:28;6.68;;;4.10;;
52126;SDS011;38120;53.176;6.614;2024-03-02T01:30:54;6.32;;;4.18;;
52126;SDS011;38120;53.176;6.614;2024-03-02T01:33:20;6.87;;;4.57;;
52126;SDS011;38120;53.176;6.614;2024-03-02T01:35:46;6.85;;;4.47;;
52126;SDS011;38120;53.176;6.614;2024-03-02T01:38:12;6.78;;;4.05;;
52126;SDS011;38120;53.176;6.614;2024-03-02T01:40:38;6.47;;;3.92;;
52126;SDS011;38120;53.176;6.614;2024-03-02T01:43:04;5.85;;;4.10;;
52126;SDS011;38120;53.176;6.614;2024-03-02T01:45:31;8.52;;;4.38;;
52126;SDS011;38120;53.176;6.614;2024-03-02T01:47:57;6.57;;;4.57;;
52126;SDS011;38120;53.176;6.614;2024-03-02T01:50:32;6.35;;;4.35;;
52126;SDS011;38120;53.176;6.614;2024-03-02T01:52:59;7.10;;;3.97;;
52126;SDS011;38120;53.176;6.614;2024-03-02T01:57:52;6.47;;;4.00;;
52126;SDS011;38120;53.176;6.614;2024-03-02T02:00:19;7.00;;;4.63;;
52126;SDS011;38120;53.176;6.614;2024-03-02T02:02:46;7.82;;;4.57;;
52126;SDS011;38120;53.176;6.614;2024-03-02T02:05:13;9.20;;;4.43;;
52126;SDS011;38120;53.176;6.614;2024-03-02T02:07:40;10.63;;;5.03;;
52126;SDS011;38120;53.176;6.614;2024-03-02T02:10:12;7.10;;;4.70;;
52126;SDS011;38120;53.176;6.614;2024-03-02T02:12:37;6.18;;;4.55;;
52126;SDS011;38120;53.176;6.614;2024-03-02T02:15:04;6.38;;;4.43;;
52126;SDS011;38120;53.176;6.614;2024-03-02T02:17:50;6.63;;;4.13;;
52126;SDS011;38120;53.176;6.614;2024-03-02T02:20:16;6.50;;;4.38;;
52126;SDS011;38120;53.176;6.614;2024-03-02T02:22:53;6.97;;;4.45;;
52126;SDS011;38120;53.176;6.614;2024-03-02T02:25:22;6.97;;;4.60;;
52126;SDS011;38120;53.176;6.614;2024-03-02T02:27:48;6.78;;;4.78;;
52126;SDS011;38120;53.176;6.614;2024-03-02T02:30:18;8.68;;;4.10;;
52126;SDS011;38120;53.176;6.614;2024-03-02T02:32:47;8.52;;;4.55;;
52126;SDS011;38120;53.176;6.614;2024-03-02T02:35:13;7.05;;;3.92;;
52126;SDS011;38120;53.176;6.614;2024-03-02T02:37:39;5.43;;;3.67;;
52126;SDS011;38120;53.176;6.614;2024-03-02T02:40:05;7.25;;;4.75;;
52126;SDS011;38120;53.176;6.614;2024-03-02T02:42:32;7.00;;;4.45;;
52126;SDS011;38120;53.176;6.614;2024-03-02T02:44:57;4.80;;;3.23;;
52126;SDS011;38120;53.176;6.614;2024-03-02T02:47:23;6.95;;;3.83;;
52126;SDS011;38120;53.176;6.614;2024-03-02T02:49:49;5.27;;;3.50;;
52126;SDS011;38120;53.176;6.614;2024-03-02T02:52:14;6.90;;;4.47;;
52126;SDS011;38120;53.176;6.614;2024-03-02T02:54:40;7.20;;;3.93;;
52126;SDS011;38120;53.176;6.614;2024-03-02T02:57:06;5.80;;;3.33;;
52126;SDS011;38120;53.176;6.614;2024-03-02T02:59:31;5.10;;;3.67;;
52126;SDS011;38120;53.176;6.614;2024-03-02T03:01:57;6.37;;;4.03;;
52126;SDS011;38120;53.176;6.614;2024-03-02T03:04:23;6.78;;;3.38;;
52126;SDS011;38120;53.176;6.614;2024-03-02T03:06:48;5.80;;;2.90;;
52126;SDS011;38120;53.176;6.614;2024-03-02T03:09:14;5.13;;;3.30;;
52126;SDS011;38120;53.176;6.614;2024-03-02T03:11:39;5.83;;;3.13;;
52126;SDS011;38120;53.176;6.614;2024-03-02T03:14:05;5.43;;;3.20;;
52126;SDS011;38120;53.176;6.614;2024-03-02T03:16:31;4.90;;;2.63;;
52126;SDS011;38120;53.176;6.614;2024-03-02T03:18:56;4.33;;;2.80;;
52126;SDS011;38120;53.176;6.614;2024-03-02T03:21:22;5.40;;;2.60;;
52126;SDS011;38120;53.176;6.614;2024-03-02T03:23:48;5.32;;;3.20;;
52126;SDS011;38120;53.176;6.614;2024-03-02T03:26:14;5.47;;;2.47;;
52126;SDS011;38120;53.176;6.614;2024-03-02T03:28:40;10.00;;;3.22;;
52126;SDS011;38120;53.176;6.614;2024-03-02T03:31:05;6.10;;;2.73;;
52126;SDS011;38120;53.176;6.614;2024-03-02T03:33:32;5.07;;;2.92;;
52126;SDS011;38120;53.176;6.614;2024-03-02T03:35:57;6.57;;;2.83;;
52126;SDS011;38120;53.176;6.614;2024-03-02T03:38:23;8.50;;;3.07;;
52126;SDS011;38120;53.176;6.614;2024-03-02T03:40:49;4.37;;;2.87;;
52126;SDS011;38120;53.176;6.614;2024-03-02T03:43:14;4.23;;;2.60;;
52126;SDS011;38120;53.176;6.614;2024-03-02T03:45:40;5.80;;;2.77;;
52126;SDS011;38120;53.176;6.614;2024-03-02T03:48:06;5.45;;;2.83;;
52126;SDS011;38120;53.176;6.614;2024-03-02T03:50:32;5.13;;;2.70;;
52126;SDS011;38120;53.176;6.614;2024-03-02T03:52:58;3.93;;;2.40;;
52126;SDS011;38120;53.176;6.614;2024-03-02T03:55:23;4.32;;;2.88;;
52126;SDS011;38120;53.176;6.614;2024-03-02T03:57:49;5.10;;;3.03;;
52126;SDS011;38120;53.176;6.614;2024-03-02T04:00:15;5.80;;;3.40;;
52126;SDS011;38120;53.176;6.614;2024-03-02T04:02:41;5.70;;;3.22;;
52126;SDS011;38120;53.176;6.614;2024-03-02T04:05:06;4.40;;;2.57;;
52126;SDS011;38120;53.176;6.614;2024-03-02T04:07:36;4.97;;;2.88;;
52126;SDS011;38120;53.176;6.614;2024-03-02T04:10:09;5.15;;;2.70;;
52126;SDS011;38120;53.176;6.614;2024-03-02T04:12:38;4.55;;;2.72;;
52126;SDS011;38120;53.176;6.614;2024-03-02T04:15:07;3.92;;;2.67;;
52126;SDS011;38120;53.176;6.614;2024-03-02T04:17:33;4.43;;;2.83;;
52126;SDS011;38120;53.176;6.614;2024-03-02T04:19:59;5.40;;;2.95;;
52126;SDS011;38120;53.176;6.614;2024-03-02T04:22:26;5.50;;;2.95;;
52126;SDS011;38120;53.176;6.614;2024-03-02T04:24:52;5.32;;;3.10;;
52126;SDS011;38120;53.176;6.614;2024-03-02T04:27:18;4.85;;;3.05;;
52126;SDS011;38120;53.176;6.614;2024-03-02T04:29:43;6.33;;;3.40;;
52126;SDS011;38120;53.176;6.614;2024-03-02T04:32:09;4.82;;;2.70;;
52126;SDS011;38120;53.176;6.614;2024-03-02T04:34:35;5.77;;;3.03;;
52126;SDS011;38120;53.176;6.614;2024-03-02T04:37:00;4.67;;;2.73;;
52126;SDS011;38120;53.176;6.614;2024-03-02T04:39:26;7.30;;;3.53;;
52126;SDS011;38120;53.176;6.614;2024-03-02T04:41:52;5.38;;;3.08;;
52126;SDS011;38120;53.176;6.614;2024-03-02T04:44:18;5.70;;;3.27;;
52126;SDS011;38120;53.176;6.614;2024-03-02T04:46:43;4.83;;;2.80;;
52126;SDS011;38120;53.176;6.614;2024-03-02T04:49:09;4.30;;;2.57;;
52126;SDS011;38120;53.176;6.614;2024-03-02T04:51:35;5.65;;;2.72;;
52126;SDS011;38120;53.176;6.614;2024-03-02T04:54:00;6.17;;;2.67;;
52126;SDS011;38120;53.176;6.614;2024-03-02T04:56:26;5.43;;;3.03;;
52126;SDS011;38120;53.176;6.614;2024-03-02T04:58:57;5.78;;;2.90;;
52126;SDS011;38120;53.176;6.614;2024-03-02T05:01:23;4.60;;;2.37;;
52126;SDS011;38120;53.176;6.614;2024-03-02T05:03:49;7.20;;;3.03;;
52126;SDS011;38120;53.176;6.614;2024-03-02T05:06:14;6.83;;;2.40;;
52126;SDS011;38120;53.176;6.614;2024-03-02T05:08:40;7.17;;;2.57;;
52126;SDS011;38120;53.176;6.614;2024-03-02T05:11:06;4.63;;;2.60;;
52126;SDS011;38120;53.176;6.614;2024-03-02T05:14:10;5.47;;;3.10;;
52126;SDS011;38120;53.176;6.614;2024-03-02T05:16:36;5.23;;;2.93;;
52126;SDS011;38120;53.176;6.614;2024-03-02T05:19:05;4.55;;;2.65;;
52126;SDS011;38120;53.176;6.614;2024-03-02T05:21:33;4.95;;;3.03;;
52126;SDS011;38120;53.176;6.614;2024-03-02T05:23:59;5.03;;;3.15;;
52126;SDS011;38120;53.176;6.614;2024-03-02T05:26:25;4.68;;;3.13;;
52126;SDS011;38120;53.176;6.614;2024-03-02T05:28:51;4.60;;;2.70;;
52126;SDS011;38120;53.176;6.614;2024-03-02T05:31:16;5.67;;;2.87;;
52126;SDS011;38120;53.176;6.614;2024-03-02T05:33:42;5.57;;;3.00;;
52126;SDS011;38120;53.176;6.614;2024-03-02T05:36:09;5.55;;;2.97;;
52126;SDS011;38120;53.176;6.614;2024-03-02T05:38:35;5.85;;;3.00;;
52126;SDS011;38120;53.176;6.614;2024-03-02T05:41:00;8.07;;;2.47;;
52126;SDS011;38120;53.176;6.614;2024-03-02T05:43:26;4.53;;;2.90;;
52126;SDS011;38120;53.176;6.614;2024-03-02T05:45:52;5.67;;;3.00;;
52126;SDS011;38120;53.176;6.614;2024-03-02T05:48:18;6.03;;;2.70;;
52126;SDS011;38120;53.176;6.614;2024-03-02T05:50:43;5.28;;;3.28;;
52126;SDS011;38120;53.176;6.614;2024-03-02T05:53:09;5.07;;;2.70;;
52126;SDS011;38120;53.176;6.614;2024-03-02T05:55:35;6.53;;;3.03;;
52126;SDS011;38120;53.176;6.614;2024-03-02T05:58:01;5.50;;;3.00;;
52126;SDS011;38120;53.176;6.614;2024-03-02T06:00:29;4.78;;;2.80;;
52126;SDS011;38120;53.176;6.614;2024-03-02T06:02:56;4.28;;;2.60;;
52126;SDS011;38120;53.176;6.614;2024-03-02T06:05:21;5.50;;;3.30;;
52126;SDS011;38120;53.176;6.614;2024-03-02T06:07:47;3.77;;;2.70;;
52126;SDS011;38120;53.176;6.614;2024-03-02T06:10:13;4.93;;;2.80;;
52126;SDS011;38120;53.176;6.614;2024-03-02T06:12:39;4.78;;;2.80;;
52126;SDS011;38120;53.176;6.614;2024-03-02T06:15:05;4.70;;;2.80;;
52126;SDS011;38120;53.176;6.614;2024-03-02T06:17:31;5.03;;;3.42;;
52126;SDS011;38120;53.176;6.614;2024-03-02T06:19:57;7.53;;;3.00;;
52126;SDS011;38120;53.176;6.614;2024-03-02T06:22:23;7.37;;;3.57;;
52126;SDS011;38120;53.176;6.614;2024-03-02T06:24:50;4.60;;;2.88;;
52126;SDS011;38120;53.176;6.614;2024-03-02T06:27:16;6.70;;;3.50;;
52126;SDS011;38120;53.176;6.614;2024-03-02T06:29:41;7.23;;;2.93;;
52126;SDS011;38120;53.176;6.614;2024-03-02T06:32:07;4.72;;;3.35;;
52126;SDS011;38120;53.176;6.614;2024-03-02T06:34:33;5.13;;;3.13;;
52126;SDS011;38120;53.176;6.614;2024-03-02T06:37:00;5.37;;;2.80;;
52126;SDS011;38120;53.176;6.614;2024-03-02T06:39:25;7.03;;;3.55;;
52126;SDS011;38120;53.176;6.614;2024-03-02T06:41:51;4.93;;;3.00;;
52126;SDS011;38120;53.176;6.614;2024-03-02T06:44:17;5.45;;;2.92;;
52126;SDS011;38120;53.176;6.614;2024-03-02T06:46:43;5.00;;;3.00;;
52126;SDS011;38120;53.176;6.614;2024-03-02T06:49:09;4.00;;;2.33;;
52126;SDS011;38120;53.176;6.614;2024-03-02T06:51:37;4.63;;;2.53;;
52126;SDS011;38120;53.176;6.614;2024-03-02T06:54:03;6.43;;;2.90;;
52126;SDS011;38120;53.176;6.614;2024-03-02T06:56:28;4.93;;;3.00;;
52126;SDS011;38120;53.176;6.614;2024-03-02T06:58:55;7.55;;;3.15;;
52126;SDS011;38120;53.176;6.614;2024-03-02T07:01:21;4.63;;;2.80;;
52126;SDS011;38120;53.176;6.614;2024-03-02T07:03:47;4.93;;;3.20;;
52126;SDS011;38120;53.176;6.614;2024-03-02T07:06:12;5.70;;;2.80;;
52126;SDS011;38120;53.176;6.614;2024-03-02T07:08:38;5.07;;;2.93;;
52126;SDS011;38120;53.176;6.614;2024-03-02T07:11:04;5.40;;;2.90;;
52126;SDS011;38120;53.176;6.614;2024-03-02T07:13:29;6.13;;;3.33;;
52126;SDS011;38120;53.176;6.614;2024-03-02T07:15:55;6.20;;;2.93;;
52126;SDS011;38120;53.176;6.614;2024-03-02T07:18:36;5.50;;;3.70;;
52126;SDS011;38120;53.176;6.614;2024-03-02T07:21:09;4.63;;;2.80;;
52126;SDS011;38120;53.176;6.614;2024-03-02T07:23:35;6.55;;;3.45;;
52126;SDS011;38120;53.176;6.614;2024-03-02T07:26:01;5.05;;;2.95;;
52126;SDS011;38120;53.176;6.614;2024-03-02T07:28:28;9.70;;;4.05;;
52126;SDS011;38120;53.176;6.614;2024-03-02T07:31:00;6.10;;;3.10;;
52126;SDS011;38120;53.176;6.614;2024-03-02T07:33:27;5.05;;;2.90;;
52126;SDS011;38120;53.176;6.614;2024-03-02T07:35:56;4.80;;;3.20;;
52126;SDS011;38120;53.176;6.614;2024-03-02T07:38:23;4.88;;;3.20;;
52126;SDS011;38120;53.176;6.614;2024-03-02T07:40:49;7.07;;;2.97;;
52126;SDS011;38120;53.176;6.614;2024-03-02T07:43:16;5.05;;;3.42;;
52126;SDS011;38120;53.176;6.614;2024-03-02T07:45:45;5.28;;;2.58;;
52126;SDS011;38120;53.176;6.614;2024-03-02T07:48:11;7.63;;;3.58;;
52126;SDS011;38120;53.176;6.614;2024-03-02T07:50:37;7.32;;;3.42;;
52126;SDS011;38120;53.176;6.614;2024-03-02T07:53:04;3.95;;;2.50;;
52126;SDS011;38120;53.176;6.614;2024-03-02T07:55:31;5.32;;;2.95;;
52126;SDS011;38120;53.176;6.614;2024-03-02T07:57:56;3.72;;;2.50;;
52126;SDS011;38120;53.176;6.614;2024-03-02T08:00:23;5.30;;;2.92;;
52126;SDS011;38120;53.176;6.614;2024-03-02T08:02:49;5.30;;;3.00;;
52126;SDS011;38120;53.176;6.614;2024-03-02T08:05:19;6.28;;;2.45;;
52126;SDS011;38120;53.176;6.614;2024-03-02T08:07:45;6.13;;;2.47;;
52126;SDS011;38120;53.176;6.614;2024-03-02T08:10:12;4.40;;;2.13;;
52126;SDS011;38120;53.176;6.614;2024-03-02T08:12:38;5.82;;;2.13;;
52126;SDS011;38120;53.176;6.614;2024-03-02T08:15:04;5.68;;;2.33;;
52126;SDS011;38120;53.176;6.614;2024-03-02T08:17:30;4.40;;;2.30;;
52126;SDS011;38120;53.176;6.614;2024-03-02T08:19:56;3.50;;;1.83;;
52126;SDS011;38120;53.176;6.614;2024-03-02T08:22:22;3.35;;;1.80;;
52126;SDS011;38120;53.176;6.614;2024-03-02T08:24:52;3.38;;;1.92;;
52126;SDS011;38120;53.176;6.614;2024-03-02T08:27:18;3.45;;;1.60;;
52126;SDS011;38120;53.176;6.614;2024-03-02T08:29:44;3.55;;;1.52;;
52126;SDS011;38120;53.176;6.614;2024-03-02T08:32:09;2.60;;;1.60;;
52126;SDS011;38120;53.176;6.614;2024-03-02T08:34:35;3.77;;;2.13;;
52126;SDS011;38120;53.176;6.614;2024-03-02T08:37:01;4.23;;;2.13;;
52126;SDS011;38120;53.176;6.614;2024-03-02T08:39:27;2.60;;;1.45;;
52126;SDS011;38120;53.176;6.614;2024-03-02T08:41:53;2.60;;;1.73;;
52126;SDS011;38120;53.176;6.614;2024-03-02T08:44:19;3.55;;;1.60;;
52126;SDS011;38120;53.176;6.614;2024-03-02T08:46:45;3.35;;;1.75;;
52126;SDS011;38120;53.176;6.614;2024-03-02T08:49:11;4.77;;;1.57;;
52126;SDS011;38120;53.176;6.614;2024-03-02T08:51:37;2.60;;;1.33;;
52126;SDS011;38120;53.176;6.614;2024-03-02T08:54:03;4.53;;;1.77;;
52126;SDS011;38120;53.176;6.614;2024-03-02T08:56:29;4.93;;;1.63;;
52126;SDS011;38120;53.176;6.614;2024-03-02T09:01:21;4.57;;;1.50;;
52126;SDS011;38120;53.176;6.614;2024-03-02T09:03:47;3.92;;;1.95;;
52126;SDS011;38120;53.176;6.614;2024-03-02T09:08:42;3.47;;;1.42;;
52126;SDS011;38120;53.176;6.614;2024-03-02T09:11:08;2.30;;;1.52;;
52126;SDS011;38120;53.176;6.614;2024-03-02T09:13:37;4.55;;;1.45;;
52126;SDS011;38120;53.176;6.614;2024-03-02T09:16:04;6.22;;;1.70;;
52126;SDS011;38120;53.176;6.614;2024-03-02T09:18:30;3.47;;;2.13;;
52126;SDS011;38120;53.176;6.614;2024-03-02T09:20:56;5.70;;;1.70;;
52126;SDS011;38120;53.176;6.614;2024-03-02T09:23:22;8.07;;;2.17;;
52126;SDS011;38120;53.176;6.614;2024-03-02T09:25:47;4.67;;;1.40;;
52126;SDS011;38120;53.176;6.614;2024-03-02T09:28:15;2.67;;;1.60;;
52126;SDS011;38120;53.176;6.614;2024-03-02T09:30:41;3.38;;;1.08;;
52126;SDS011;38120;53.176;6.614;2024-03-02T09:33:07;4.23;;;1.60;;
52126;SDS011;38120;53.176;6.614;2024-03-02T09:35:32;3.65;;;1.35;;
52126;SDS011;38120;53.176;6.614;2024-03-02T09:37:58;4.73;;;1.03;;
52126;SDS011;38120;53.176;6.614;2024-03-02T09:40:24;3.40;;;1.30;;
52126;SDS011;38120;53.176;6.614;2024-03-02T09:42:50;2.83;;;1.35;;
52126;SDS011;38120;53.176;6.614;2024-03-02T09:45:22;1.95;;;1.30;;
52126;SDS011;38120;53.176;6.614;2024-03-02T09:47:49;3.72;;;1.38;;
52126;SDS011;38120;53.176;6.614;2024-03-02T09:50:14;2.60;;;1.08;;
52126;SDS011;38120;53.176;6.614;2024-03-02T09:52:42;4.10;;;1.63;;
52126;SDS011;38120;53.176;6.614;2024-03-02T09:55:08;3.05;;;1.60;;
52126;SDS011;38120;53.176;6.614;2024-03-02T09:57:34;2.47;;;1.25;;
52126;SDS011;38120;53.176;6.614;2024-03-02T10:00:00;3.27;;;0.93;;
52126;SDS011;38120;53.176;6.614;2024-03-02T10:02:26;4.53;;;1.33;;
52126;SDS011;38120;53.176;6.614;2024-03-02T10:04:51;1.87;;;1.00;;
52126;SDS011;38120;53.176;6.614;2024-03-02T10:07:17;2.33;;;1.00;;
52126;SDS011;38120;53.176;6.614;2024-03-02T10:09:45;2.28;;;1.33;;
52126;SDS011;38120;53.176;6.614;2024-03-02T10:12:12;3.20;;;1.60;;
52126;SDS011;38120;53.176;6.614;2024-03-02T10:14:40;3.28;;;1.25;;
52126;SDS011;38120;53.176;6.614;2024-03-02T10:17:07;4.38;;;1.35;;
52126;SDS011;38120;53.176;6.614;2024-03-02T10:19:37;1.45;;;0.90;;
52126;SDS011;38120;53.176;6.614;2024-03-02T10:22:07;5.47;;;1.73;;
52126;SDS011;38120;53.176;6.614;2024-03-02T10:24:35;2.97;;;1.00;;
52126;SDS011;38120;53.176;6.614;2024-03-02T10:27:06;3.47;;;1.30;;
52126;SDS011;38120;53.176;6.614;2024-03-02T10:29:36;4.60;;;1.40;;
52126;SDS011;38120;53.176;6.614;2024-03-02T10:32:03;3.25;;;1.58;;
52126;SDS011;38120;53.176;6.614;2024-03-02T10:34:29;5.15;;;1.35;;
52126;SDS011;38120;53.176;6.614;2024-03-02T10:36:56;3.92;;;1.38;;
52126;SDS011;38120;53.176;6.614;2024-03-02T10:39:22;2.70;;;1.10;;
52126;SDS011;38120;53.176;6.614;2024-03-02T10:41:49;2.17;;;1.40;;
52126;SDS011;38120;53.176;6.614;2024-03-02T10:44:18;3.20;;;1.27;;
52126;SDS011;38120;53.176;6.614;2024-03-02T10:46:44;2.78;;;1.17;;
52126;SDS011;38120;53.176;6.614;2024-03-02T10:49:12;1.85;;;0.82;;
52126;SDS011;38120;53.176;6.614;2024-03-02T10:51:38;4.65;;;1.38;;
52126;SDS011;38120;53.176;6.614;2024-03-02T10:54:04;3.37;;;1.33;;
52126;SDS011;38120;53.176;6.614;2024-03-02T10:56:30;2.03;;;0.90;;
52126;SDS011;38120;53.176;6.614;2024-03-02T11:01:35;3.60;;;1.52;;
52126;SDS011;38120;53.176;6.614;2024-03-02T11:04:04;2.40;;;1.30;;
52126;SDS011;38120;53.176;6.614;2024-03-02T11:06:33;3.35;;;1.70;;
52126;SDS011;38120;53.176;6.614;2024-03-02T11:09:04;2.08;;;1.30;;
52126;SDS011;38120;53.176;6.614;2024-03-02T11:11:37;3.35;;;1.63;;
52126;SDS011;38120;53.176;6.614;2024-03-02T11:14:07;6.22;;;1.67;;
52126;SDS011;38120;53.176;6.614;2024-03-02T11:16:37;1.50;;;0.90;;
52126;SDS011;38120;53.176;6.614;2024-03-02T11:19:06;3.25;;;1.20;;
52126;SDS011;38120;53.176;6.614;2024-03-02T11:21:37;3.15;;;1.60;;
52126;SDS011;38120;53.176;6.614;2024-03-02T11:26:50;3.10;;;1.30;;
52126;SDS011;38120;53.176;6.614;2024-03-02T11:32:01;3.03;;;1.15;;
52126;SDS011;38120;53.176;6.614;2024-03-02T11:34:32;1.50;;;1.10;;
52126;SDS011;38120;53.176;6.614;2024-03-02T11:37:02;3.28;;;1.55;;
52126;SDS011;38120;53.176;6.614;2024-03-02T11:39:28;3.45;;;1.42;;
52126;SDS011;38120;53.176;6.614;2024-03-02T11:41:55;3.28;;;1.67;;
52126;SDS011;38120;53.176;6.614;2024-03-02T11:44:21;3.92;;;1.27;;
52126;SDS011;38120;53.176;6.614;2024-03-02T11:46:58;2.33;;;1.23;;
52126;SDS011;38120;53.176;6.614;2024-03-02T11:49:37;3.03;;;1.40;;
52126;SDS011;38120;53.176;6.614;2024-03-02T11:52:04;5.70;;;1.33;;
52126;SDS011;38120;53.176;6.614;2024-03-02T11:54:34;5.57;;;1.50;;
52126;SDS011;38120;53.176;6.614;2024-03-02T11:59:37;3.38;;;1.40;;
52126;SDS011;38120;53.176;6.614;2024-03-02T12:02:03;3.07;;;1.40;;
52126;SDS011;38120;53.176;6.614;2024-03-02T12:04:29;3.33;;;1.40;;
52126;SDS011;38120;53.176;6.614;2024-03-02T12:06:56;4.63;;;1.23;;
52126;SDS011;38120;53.176;6.614;2024-03-02T12:09:25;3.88;;;1.25;;
52126;SDS011;38120;53.176;6.614;2024-03-02T12:14:33;5.63;;;1.40;;
52126;SDS011;38120;53.176;6.614;2024-03-02T12:17:01;4.07;;;1.23;;
52126;SDS011;38120;53.176;6.614;2024-03-02T12:19:28;3.22;;;1.20;;
52126;SDS011;38120;53.176;6.614;2024-03-02T12:21:58;2.33;;;1.40;;
52126;SDS011;38120;53.176;6.614;2024-03-02T12:24:26;4.78;;;1.40;;
52126;SDS011;38120;53.176;6.614;2024-03-02T12:26:53;4.97;;;1.70;;
52126;SDS011;38120;53.176;6.614;2024-03-02T12:29:26;3.67;;;1.45;;
52126;SDS011;38120;53.176;6.614;2024-03-02T12:31:52;3.03;;;1.58;;
52126;SDS011;38120;53.176;6.614;2024-03-02T12:34:18;3.85;;;1.58;;
52126;SDS011;38120;53.176;6.614;2024-03-02T12:36:45;4.30;;;1.98;;
52126;SDS011;38120;53.176;6.614;2024-03-02T12:39:18;6.10;;;1.63;;
52126;SDS011;38120;53.176;6.614;2024-03-02T12:41:45;5.15;;;1.98;;
52126;SDS011;38120;53.176;6.614;2024-03-02T12:44:11;5.13;;;2.33;;
52126;SDS011;38120;53.176;6.614;2024-03-02T12:46:37;5.60;;;2.10;;
52126;SDS011;38120;53.176;6.614;2024-03-02T12:49:09;3.45;;;2.22;;
52126;SDS011;38120;53.176;6.614;2024-03-02T12:51:39;6.60;;;1.90;;
52126;SDS011;38120;53.176;6.614;2024-03-02T12:54:09;3.60;;;2.05;;
52126;SDS011;38120;53.176;6.614;2024-03-02T12:56:36;4.10;;;2.08;;
52126;SDS011;38120;53.176;6.614;2024-03-02T12:59:02;3.78;;;1.88;;
52126;SDS011;38120;53.176;6.614;2024-03-02T13:01:29;3.33;;;1.85;;
52126;SDS011;38120;53.176;6.614;2024-03-02T13:03:54;5.70;;;2.45;;
52126;SDS011;38120;53.176;6.614;2024-03-02T13:09:03;4.68;;;2.28;;
52126;SDS011;38120;53.176;6.614;2024-03-02T13:11:28;4.65;;;2.20;;
52126;SDS011;38120;53.176;6.614;2024-03-02T13:13:54;3.30;;;2.30;;
52126;SDS011;38120;53.176;6.614;2024-03-02T13:16:20;5.63;;;2.65;;
52126;SDS011;38120;53.176;6.614;2024-03-02T13:18:45;6.37;;;3.50;;
52126;SDS011;38120;53.176;6.614;2024-03-02T13:21:11;4.88;;;3.30;;
52126;SDS011;38120;53.176;6.614;2024-03-02T13:23:37;7.18;;;4.38;;
52126;SDS011;38120;53.176;6.614;2024-03-02T13:26:03;9.63;;;4.33;;
52126;SDS011;38120;53.176;6.614;2024-03-02T13:30:55;5.03;;;4.40;;
52126;SDS011;38120;53.176;6.614;2024-03-02T13:33:20;6.13;;;4.73;;
52126;SDS011;38120;53.176;6.614;2024-03-02T13:35:49;6.28;;;4.32;;
52126;SDS011;38120;53.176;6.614;2024-03-02T13:38:18;5.75;;;4.07;;
52126;SDS011;38120;53.176;6.614;2024-03-02T13:40:45;6.00;;;3.80;;
52126;SDS011;38120;53.176;6.614;2024-03-02T13:43:17;5.43;;;3.83;;
52126;SDS011;38120;53.176;6.614;2024-03-02T13:45:47;5.05;;;3.80;;
52126;SDS011;38120;53.176;6.614;2024-03-02T13:48:13;5.40;;;3.97;;
52126;SDS011;38120;53.176;6.614;2024-03-02T13:53:05;6.32;;;4.00;;
52126;SDS011;38120;53.176;6.614;2024-03-02T13:57:58;6.00;;;4.00;;
52126;SDS011;38120;53.176;6.614;2024-03-02T14:00:24;6.82;;;3.75;;
52126;SDS011;38120;53.176;6.614;2024-03-02T14:02:51;6.43;;;3.85;;
52126;SDS011;38120;53.176;6.614;2024-03-02T14:05:17;5.82;;;3.80;;
52126;SDS011;38120;53.176;6.614;2024-03-02T14:07:44;5.68;;;3.60;;
52126;SDS011;38120;53.176;6.614;2024-03-02T14:10:10;7.03;;;3.43;;
52126;SDS011;38120;53.176;6.614;2024-03-02T14:12:36;9.88;;;3.25;;
52126;SDS011;38120;53.176;6.614;2024-03-02T14:15:02;6.97;;;2.90;;
52126;SDS011;38120;53.176;6.614;2024-03-02T14:17:28;7.18;;;2.85;;
52126;SDS011;38120;53.176;6.614;2024-03-02T14:19:57;3.50;;;2.10;;
52126;SDS011;38120;53.176;6.614;2024-03-02T14:22:24;6.32;;;2.10;;
52126;SDS011;38120;53.176;6.614;2024-03-02T14:24:50;3.72;;;2.05;;
52126;SDS011;38120;53.176;6.614;2024-03-02T14:27:16;5.10;;;2.20;;
52126;SDS011;38120;53.176;6.614;2024-03-02T14:29:42;5.13;;;2.40;;
52126;SDS011;38120;53.176;6.614;2024-03-02T14:32:08;3.72;;;1.85;;
52126;SDS011;38120;53.176;6.614;2024-03-02T14:34:34;3.28;;;1.70;;
52126;SDS011;38120;53.176;6.614;2024-03-02T14:36:59;4.68;;;1.80;;
52126;SDS011;38120;53.176;6.614;2024-03-02T14:39:26;4.80;;;1.58;;
52126;SDS011;38120;53.176;6.614;2024-03-02T14:41:52;5.18;;;1.70;;
52126;SDS011;38120;53.176;6.614;2024-03-02T14:44:18;3.67;;;1.58;;
52126;SDS011;38120;53.176;6.614;2024-03-02T14:46:46;2.73;;;1.63;;
52126;SDS011;38120;53.176;6.614;2024-03-02T14:49:12;3.90;;;1.63;;
52126;SDS011;38120;53.176;6.614;2024-03-02T14:51:38;3.50;;;1.50;;
52126;SDS011;38120;53.176;6.614;2024-03-02T14:54:04;3.80;;;1.97;;
52126;SDS011;38120;53.176;6.614;2024-03-02T14:56:30;5.50;;;2.03;;
52126;SDS011;38120;53.176;6.614;2024-03-02T14:58:55;6.50;;;1.95;;
52126;SDS011;38120;53.176;6.614;2024-03-02T15:01:21;5.60;;;2.65;;
52126;SDS011;38120;53.176;6.614;2024-03-02T15:03:51;4.15;;;1.95;;
52126;SDS011;38120;53.176;6.614;2024-03-02T15:06:17;3.83;;;1.90;;
52126;SDS011;38120;53.176;6.614;2024-03-02T15:08:43;5.20;;;2.30;;
52126;SDS011;38120;53.176;6.614;2024-03-02T15:11:11;4.88;;;2.35;;
52126;SDS011;38120;53.176;6.614;2024-03-02T15:13:37;6.00;;;2.42;;
52126;SDS011;38120;53.176;6.614;2024-03-02T15:16:03;3.33;;;1.90;;
52126;SDS011;38120;53.176;6.614;2024-03-02T15:18:29;4.47;;;2.30;;
52126;SDS011;38120;53.176;6.614;2024-03-02T15:20:55;8.82;;;2.47;;
52126;SDS011;38120;53.176;6.614;2024-03-02T15:23:20;3.83;;;2.28;;